sensor_id;sensor_type;location;lat;lon;timestamp;temperature;humidity
8910;DHT22;4490;49.072;8.804;2023-08-21T00:01:03;23.90;99.90
8910;DHT22;4490;49.072;8.804;2023-08-21T00:03:28;23.90;99.90
8910;DHT22;4490;49.072;8.804;2023-08-21T00:05:55;23.80;99.90
8910;DHT22;4490;49.072;8.804;2023-08-21T00:08:20;23.80;99.90
8910;DHT22;4490;49.072;8.804;2023-08-21T00:10:46;23.80;99.90
8910;DHT22;4490;49.072;8.804;2023-08-21T00:13:12;23.70;99.90
8910;DHT22;4490;49.072;8.804;2023-08-21T00:15:38;23.70;99.90
8910;DHT22;4490;49.072;8.804;2023-08-21T00:18:04;23.70;99.90
8910;DHT22;4490;49.072;8.804;2023-08-21T00:20:30;23.60;99.90
8910;DHT22;4490;49.072;8.804;2023-08-21T00:22:56;23.60;99.90
8910;DHT22;4490;49.072;8.804;2023-08-21T00:25:22;23.50;99.90
8910;DHT22;4490;49.072;8.804;2023-08-21T00:27:48;23.40;99.90
8910;DHT22;4490;49.072;8.804;2023-08-21T00:30:13;23.30;99.90
8910;DHT22;4490;49.072;8.804;2023-08-21T00:32:40;23.30;99.90
8910;DHT22;4490;49.072;8.804;2023-08-21T00:35:06;23.30;99.90
8910;DHT22;4490;49.072;8.804;2023-08-21T00:37:32;23.30;99.90
8910;DHT22;4490;49.072;8.804;2023-08-21T00:39:57;23.30;99.90
8910;DHT22;4490;49.072;8.804;2023-08-21T00:42:23;23.20;99.90
8910;DHT22;4490;49.072;8.804;2023-08-21T00:44:49;23.20;99.90
8910;DHT22;4490;49.072;8.804;2023-08-21T00:47:14;23.20;99.90
8910;DHT22;4490;49.072;8.804;2023-08-21T00:49:40;23.20;99.90
8910;DHT22;4490;49.072;8.804;2023-08-21T00:52:12;23.10;99.90
8910;DHT22;4490;49.072;8.804;2023-08-21T00:54:38;23.10;99.90
8910;DHT22;4490;49.072;8.804;2023-08-21T00:57:04;23.10;99.90
8910;DHT22;4490;49.072;8.804;2023-08-21T00:59:30;23.10;99.90
8910;DHT22;4490;49.072;8.804;2023-08-21T01:01:56;23.10;99.90
8910;DHT22;4490;49.072;8.804;2023-08-21T01:04:21;23.00;99.90
8910;DHT22;4490;49.072;8.804;2023-08-21T01:06:49;23.00;99.90
8910;DHT22;4490;49.072;8.804;2023-08-21T01:09:25;23.00;99.90
8910;DHT22;4490;49.072;8.804;2023-08-21T01:12:09;23.00;99.90
8910;DHT22;4490;49.072;8.804;2023-08-21T01:14:53;23.00;99.90
8910;DHT22;4490;49.072;8.804;2023-08-21T01:17:21;23.00;99.90
8910;DHT22;4490;49.072;8.804;2023-08-21T01:19:49;22.90;99.90
8910;DHT22;4490;49.072;8.804;2023-08-21T01:22:15;22.90;99.90
8910;DHT22;4490;49.072;8.804;2023-08-21T01:24:41;22.80;99.90
8910;DHT22;4490;49.072;8.804;2023-08-21T01:27:07;22.80;99.90
8910;DHT22;4490;49.072;8.804;2023-08-21T01:29:34;22.80;99.90
8910;DHT22;4490;49.072;8.804;2023-08-21T01:35:00;22.70;99.90
8910;DHT22;4490;49.072;8.804;2023-08-21T01:37:26;22.70;99.90
8910;DHT22;4490;49.072;8.804;2023-08-21T01:39:53;22.70;99.90
8910;DHT22;4490;49.072;8.804;2023-08-21T01:42:18;22.60;99.90
8910;DHT22;4490;49.072;8.804;2023-08-21T01:44:44;22.60;99.90
8910;DHT22;4490;49.072;8.804;2023-08-21T01:47:12;22.60;99.90
8910;DHT22;4490;49.072;8.804;2023-08-21T01:49:38;22.60;99.90
8910;DHT22;4490;49.072;8.804;2023-08-21T01:52:04;22.60;99.90
8910;DHT22;4490;49.072;8.804;2023-08-21T01:54:29;22.60;99.90
8910;DHT22;4490;49.072;8.804;2023-08-21T01:56:55;22.60;99.90
8910;DHT22;4490;49.072;8.804;2023-08-21T01:59:21;22.60;99.90
8910;DHT22;4490;49.072;8.804;2023-08-21T02:01:47;22.50;99.90
8910;DHT22;4490;49.072;8.804;2023-08-21T02:04:12;22.50;99.90
8910;DHT22;4490;49.072;8.804;2023-08-21T02:06:38;22.50;99.90
8910;DHT22;4490;49.072;8.804;2023-08-21T02:09:03;22.50;99.90
8910;DHT22;4490;49.072;8.804;2023-08-21T02:11:29;22.50;99.90
8910;DHT22;4490;49.072;8.804;2023-08-21T02:13:54;22.50;99.90
8910;DHT22;4490;49.072;8.804;2023-08-21T02:16:20;22.50;99.90
8910;DHT22;4490;49.072;8.804;2023-08-21T02:18:47;22.50;99.90
8910;DHT22;4490;49.072;8.804;2023-08-21T02:21:13;22.50;99.90
8910;DHT22;4490;49.072;8.804;2023-08-21T02:23:38;22.40;99.90
8910;DHT22;4490;49.072;8.804;2023-08-21T02:26:04;22.30;99.90
8910;DHT22;4490;49.072;8.804;2023-08-21T02:28:30;22.30;99.90
8910;DHT22;4490;49.072;8.804;2023-08-21T02:30:55;22.30;99.90
8910;DHT22;4490;49.072;8.804;2023-08-21T02:33:21;22.20;99.90
8910;DHT22;4490;49.072;8.804;2023-08-21T02:35:46;22.20;99.90
8910;DHT22;4490;49.072;8.804;2023-08-21T02:38:12;22.20;99.90
8910;DHT22;4490;49.072;8.804;2023-08-21T02:40:38;22.20;99.90
8910;DHT22;4490;49.072;8.804;2023-08-21T02:43:03;22.20;99.90
8910;DHT22;4490;49.072;8.804;2023-08-21T02:45:30;22.10;99.90
8910;DHT22;4490;49.072;8.804;2023-08-21T02:47:55;22.10;99.90
8910;DHT22;4490;49.072;8.804;2023-08-21T02:50:21;22.00;99.90
8910;DHT22;4490;49.072;8.804;2023-08-21T02:52:47;22.00;99.90
8910;DHT22;4490;49.072;8.804;2023-08-21T02:55:12;22.00;99.90
8910;DHT22;4490;49.072;8.804;2023-08-21T02:57:39;21.90;99.90
8910;DHT22;4490;49.072;8.804;2023-08-21T03:00:05;21.90;99.90
8910;DHT22;4490;49.072;8.804;2023-08-21T03:02:32;21.90;99.90
8910;DHT22;4490;49.072;8.804;2023-08-21T03:04:58;21.90;99.90
8910;DHT22;4490;49.072;8.804;2023-08-21T03:07:24;21.80;99.90
8910;DHT22;4490;49.072;8.804;2023-08-21T03:09:50;21.90;99.90
8910;DHT22;4490;49.072;8.804;2023-08-21T03:12:16;21.90;99.90
8910;DHT22;4490;49.072;8.804;2023-08-21T03:14:41;21.80;99.90
8910;DHT22;4490;49.072;8.804;2023-08-21T03:17:07;21.80;99.90
8910;DHT22;4490;49.072;8.804;2023-08-21T03:19:33;21.80;99.90
8910;DHT22;4490;49.072;8.804;2023-08-21T03:21:58;21.80;99.90
8910;DHT22;4490;49.072;8.804;2023-08-21T03:24:24;21.80;99.90
8910;DHT22;4490;49.072;8.804;2023-08-21T03:26:50;21.70;99.90
8910;DHT22;4490;49.072;8.804;2023-08-21T03:29:15;21.70;99.90
8910;DHT22;4490;49.072;8.804;2023-08-21T03:31:41;21.70;99.90
8910;DHT22;4490;49.072;8.804;2023-08-21T03:34:06;21.60;99.90
8910;DHT22;4490;49.072;8.804;2023-08-21T03:36:32;21.60;99.90
8910;DHT22;4490;49.072;8.804;2023-08-21T03:39:02;21.60;99.90
8910;DHT22;4490;49.072;8.804;2023-08-21T03:41:28;21.60;99.90
8910;DHT22;4490;49.072;8.804;2023-08-21T03:43:53;21.60;99.90
8910;DHT22;4490;49.072;8.804;2023-08-21T03:46:19;21.60;99.90
8910;DHT22;4490;49.072;8.804;2023-08-21T03:48:45;21.60;99.90
8910;DHT22;4490;49.072;8.804;2023-08-21T03:51:10;21.60;99.90
8910;DHT22;4490;49.072;8.804;2023-08-21T03:53:36;21.60;99.90
8910;DHT22;4490;49.072;8.804;2023-08-21T03:56:02;21.60;99.90
8910;DHT22;4490;49.072;8.804;2023-08-21T03:58:27;21.60;99.90
8910;DHT22;4490;49.072;8.804;2023-08-21T04:00:53;21.60;99.90
8910;DHT22;4490;49.072;8.804;2023-08-21T04:03:19;21.60;99.90
8910;DHT22;4490;49.072;8.804;2023-08-21T04:05:45;21.50;99.90
8910;DHT22;4490;49.072;8.804;2023-08-21T04:08:11;21.50;99.90
8910;DHT22;4490;49.072;8.804;2023-08-21T04:10:37;21.50;99.90
8910;DHT22;4490;49.072;8.804;2023-08-21T04:13:04;21.50;99.90
8910;DHT22;4490;49.072;8.804;2023-08-21T04:15:30;21.40;99.90
8910;DHT22;4490;49.072;8.804;2023-08-21T04:17:56;21.40;99.90
8910;DHT22;4490;49.072;8.804;2023-08-21T04:20:22;21.30;99.90
8910;DHT22;4490;49.072;8.804;2023-08-21T04:22:48;21.30;99.90
8910;DHT22;4490;49.072;8.804;2023-08-21T04:25:14;21.30;99.90
8910;DHT22;4490;49.072;8.804;2023-08-21T04:27:40;21.30;99.90
8910;DHT22;4490;49.072;8.804;2023-08-21T04:30:06;21.30;99.90
8910;DHT22;4490;49.072;8.804;2023-08-21T04:32:33;21.30;99.90
8910;DHT22;4490;49.072;8.804;2023-08-21T04:34:59;21.30;99.90
8910;DHT22;4490;49.072;8.804;2023-08-21T04:37:24;21.30;99.90
8910;DHT22;4490;49.072;8.804;2023-08-21T04:39:51;21.30;99.90
8910;DHT22;4490;49.072;8.804;2023-08-21T04:42:17;21.40;99.90
8910;DHT22;4490;49.072;8.804;2023-08-21T04:44:43;21.40;99.90
8910;DHT22;4490;49.072;8.804;2023-08-21T04:47:23;21.40;99.90
8910;DHT22;4490;49.072;8.804;2023-08-21T04:49:50;21.40;99.90
8910;DHT22;4490;49.072;8.804;2023-08-21T04:52:16;21.40;99.90
8910;DHT22;4490;49.072;8.804;2023-08-21T04:54:42;21.40;99.90
8910;DHT22;4490;49.072;8.804;2023-08-21T04:57:07;21.40;99.90
8910;DHT22;4490;49.072;8.804;2023-08-21T04:59:34;21.40;99.90
8910;DHT22;4490;49.072;8.804;2023-08-21T05:02:00;21.40;99.90
8910;DHT22;4490;49.072;8.804;2023-08-21T05:04:25;21.30;99.90
8910;DHT22;4490;49.072;8.804;2023-08-21T05:06:51;21.30;99.90
8910;DHT22;4490;49.072;8.804;2023-08-21T05:09:16;21.30;99.90
8910;DHT22;4490;49.072;8.804;2023-08-21T05:11:42;21.40;99.90
8910;DHT22;4490;49.072;8.804;2023-08-21T05:14:08;21.40;99.90
8910;DHT22;4490;49.072;8.804;2023-08-21T05:16:33;21.40;99.90
8910;DHT22;4490;49.072;8.804;2023-08-21T05:18:59;21.40;99.90
8910;DHT22;4490;49.072;8.804;2023-08-21T05:21:24;21.40;99.90
8910;DHT22;4490;49.072;8.804;2023-08-21T05:23:50;21.40;99.90
8910;DHT22;4490;49.072;8.804;2023-08-21T05:26:15;21.50;99.90
8910;DHT22;4490;49.072;8.804;2023-08-21T05:28:41;21.50;99.90
8910;DHT22;4490;49.072;8.804;2023-08-21T05:31:07;21.50;99.90
8910;DHT22;4490;49.072;8.804;2023-08-21T05:33:32;21.60;99.90
8910;DHT22;4490;49.072;8.804;2023-08-21T05:35:58;21.60;99.90
8910;DHT22;4490;49.072;8.804;2023-08-21T05:38:23;21.60;99.90
8910;DHT22;4490;49.072;8.804;2023-08-21T05:40:49;21.60;99.90
8910;DHT22;4490;49.072;8.804;2023-08-21T05:43:16;21.70;99.90
8910;DHT22;4490;49.072;8.804;2023-08-21T05:45:42;21.70;99.90
8910;DHT22;4490;49.072;8.804;2023-08-21T05:48:07;21.70;99.90
8910;DHT22;4490;49.072;8.804;2023-08-21T05:50:33;21.70;99.90
8910;DHT22;4490;49.072;8.804;2023-08-21T05:53:05;21.80;99.90
8910;DHT22;4490;49.072;8.804;2023-08-21T05:55:32;21.80;99.90
8910;DHT22;4490;49.072;8.804;2023-08-21T05:57:57;21.80;99.90
8910;DHT22;4490;49.072;8.804;2023-08-21T06:00:23;21.90;99.90
8910;DHT22;4490;49.072;8.804;2023-08-21T06:02:49;22.00;99.90
8910;DHT22;4490;49.072;8.804;2023-08-21T06:05:14;22.00;99.90
8910;DHT22;4490;49.072;8.804;2023-08-21T06:07:40;22.00;99.90
8910;DHT22;4490;49.072;8.804;2023-08-21T06:10:07;22.10;99.90
8910;DHT22;4490;49.072;8.804;2023-08-21T06:12:33;22.10;99.90
8910;DHT22;4490;49.072;8.804;2023-08-21T06:14:59;22.10;99.90
8910;DHT22;4490;49.072;8.804;2023-08-21T06:17:27;22.20;99.90
8910;DHT22;4490;49.072;8.804;2023-08-21T06:19:53;22.20;99.90
8910;DHT22;4490;49.072;8.804;2023-08-21T06:22:18;22.30;99.90
8910;DHT22;4490;49.072;8.804;2023-08-21T06:24:44;22.40;99.90
8910;DHT22;4490;49.072;8.804;2023-08-21T06:27:09;22.50;99.90
8910;DHT22;4490;49.072;8.804;2023-08-21T06:29:35;22.60;99.90
8910;DHT22;4490;49.072;8.804;2023-08-21T06:32:03;22.70;99.90
8910;DHT22;4490;49.072;8.804;2023-08-21T06:34:28;22.80;99.90
8910;DHT22;4490;49.072;8.804;2023-08-21T06:36:54;23.10;99.90
8910;DHT22;4490;49.072;8.804;2023-08-21T06:39:19;23.50;99.90
8910;DHT22;4490;49.072;8.804;2023-08-21T06:41:45;23.80;99.90
8910;DHT22;4490;49.072;8.804;2023-08-21T06:44:11;24.20;99.90
8910;DHT22;4490;49.072;8.804;2023-08-21T06:46:36;24.60;99.90
8910;DHT22;4490;49.072;8.804;2023-08-21T06:49:02;24.90;99.90
8910;DHT22;4490;49.072;8.804;2023-08-21T06:51:28;25.20;99.90
8910;DHT22;4490;49.072;8.804;2023-08-21T06:53:53;25.50;99.90
8910;DHT22;4490;49.072;8.804;2023-08-21T06:56:19;25.60;99.90
8910;DHT22;4490;49.072;8.804;2023-08-21T06:58:44;25.70;99.90
8910;DHT22;4490;49.072;8.804;2023-08-21T07:01:10;25.80;99.90
8910;DHT22;4490;49.072;8.804;2023-08-21T07:03:35;25.80;99.90
8910;DHT22;4490;49.072;8.804;2023-08-21T07:06:01;25.90;99.90
8910;DHT22;4490;49.072;8.804;2023-08-21T07:08:28;26.00;99.90
8910;DHT22;4490;49.072;8.804;2023-08-21T07:10:54;26.00;99.90
8910;DHT22;4490;49.072;8.804;2023-08-21T07:13:20;26.00;99.90
8910;DHT22;4490;49.072;8.804;2023-08-21T07:15:46;26.10;99.90
8910;DHT22;4490;49.072;8.804;2023-08-21T07:18:13;26.10;99.90
8910;DHT22;4490;49.072;8.804;2023-08-21T07:20:38;26.20;99.90
8910;DHT22;4490;49.072;8.804;2023-08-21T07:23:04;26.40;99.90
8910;DHT22;4490;49.072;8.804;2023-08-21T07:25:29;26.50;99.90
8910;DHT22;4490;49.072;8.804;2023-08-21T07:27:55;26.60;99.90
8910;DHT22;4490;49.072;8.804;2023-08-21T07:30:21;26.80;99.90
8910;DHT22;4490;49.072;8.804;2023-08-21T07:32:48;26.90;99.90
8910;DHT22;4490;49.072;8.804;2023-08-21T07:35:14;27.00;99.90
8910;DHT22;4490;49.072;8.804;2023-08-21T07:37:44;27.10;99.90
8910;DHT22;4490;49.072;8.804;2023-08-21T07:40:10;27.20;99.90
8910;DHT22;4490;49.072;8.804;2023-08-21T07:42:35;27.20;99.90
8910;DHT22;4490;49.072;8.804;2023-08-21T07:45:01;27.30;99.90
8910;DHT22;4490;49.072;8.804;2023-08-21T07:47:27;27.40;99.90
8910;DHT22;4490;49.072;8.804;2023-08-21T07:49:53;27.50;99.90
8910;DHT22;4490;49.072;8.804;2023-08-21T07:52:19;27.60;99.90
8910;DHT22;4490;49.072;8.804;2023-08-21T07:54:45;27.70;99.90
8910;DHT22;4490;49.072;8.804;2023-08-21T07:57:11;27.80;99.90
8910;DHT22;4490;49.072;8.804;2023-08-21T07:59:37;28.00;99.90
8910;DHT22;4490;49.072;8.804;2023-08-21T08:02:02;28.10;99.90
8910;DHT22;4490;49.072;8.804;2023-08-21T08:04:28;28.30;99.90
8910;DHT22;4490;49.072;8.804;2023-08-21T08:06:54;28.50;99.60
8910;DHT22;4490;49.072;8.804;2023-08-21T08:09:20;28.80;98.50
8910;DHT22;4490;49.072;8.804;2023-08-21T08:11:45;29.10;97.00
8910;DHT22;4490;49.072;8.804;2023-08-21T08:14:11;29.40;95.00
8910;DHT22;4490;49.072;8.804;2023-08-21T08:16:36;29.50;94.00
8910;DHT22;4490;49.072;8.804;2023-08-21T08:19:02;29.70;93.60
8910;DHT22;4490;49.072;8.804;2023-08-21T08:21:27;29.80;92.90
8910;DHT22;4490;49.072;8.804;2023-08-21T08:23:53;30.00;92.10
8910;DHT22;4490;49.072;8.804;2023-08-21T08:26:19;30.20;91.20
8910;DHT22;4490;49.072;8.804;2023-08-21T08:28:44;30.30;91.00
8910;DHT22;4490;49.072;8.804;2023-08-21T08:31:17;30.50;90.60
8910;DHT22;4490;49.072;8.804;2023-08-21T08:33:43;30.60;90.10
8910;DHT22;4490;49.072;8.804;2023-08-21T08:36:09;30.70;90.00
8910;DHT22;4490;49.072;8.804;2023-08-21T08:38:35;30.80;88.90
8910;DHT22;4490;49.072;8.804;2023-08-21T08:41:02;30.80;87.30
8910;DHT22;4490;49.072;8.804;2023-08-21T08:43:31;30.90;87.90
8910;DHT22;4490;49.072;8.804;2023-08-21T08:45:58;31.10;88.70
8910;DHT22;4490;49.072;8.804;2023-08-21T08:48:24;31.30;87.70
8910;DHT22;4490;49.072;8.804;2023-08-21T08:50:53;31.50;87.30
8910;DHT22;4490;49.072;8.804;2023-08-21T08:53:19;31.60;87.10
8910;DHT22;4490;49.072;8.804;2023-08-21T08:55:45;31.70;86.10
8910;DHT22;4490;49.072;8.804;2023-08-21T08:58:10;31.90;84.90
8910;DHT22;4490;49.072;8.804;2023-08-21T09:00:37;32.10;83.80
8910;DHT22;4490;49.072;8.804;2023-08-21T09:03:04;32.10;82.70
8910;DHT22;4490;49.072;8.804;2023-08-21T09:05:30;32.20;82.20
8910;DHT22;4490;49.072;8.804;2023-08-21T09:08:03;32.10;82.10
8910;DHT22;4490;49.072;8.804;2023-08-21T09:10:29;32.20;81.80
8910;DHT22;4490;49.072;8.804;2023-08-21T09:12:55;32.20;81.20
8910;DHT22;4490;49.072;8.804;2023-08-21T09:15:28;32.30;81.10
8910;DHT22;4490;49.072;8.804;2023-08-21T09:17:55;32.40;81.30
8910;DHT22;4490;49.072;8.804;2023-08-21T09:20:20;32.50;80.60
8910;DHT22;4490;49.072;8.804;2023-08-21T09:22:55;32.60;80.00
8910;DHT22;4490;49.072;8.804;2023-08-21T09:25:22;32.70;80.20
8910;DHT22;4490;49.072;8.804;2023-08-21T09:27:51;32.70;79.90
8910;DHT22;4490;49.072;8.804;2023-08-21T09:30:17;32.80;78.90
8910;DHT22;4490;49.072;8.804;2023-08-21T09:32:53;32.80;78.30
8910;DHT22;4490;49.072;8.804;2023-08-21T09:35:20;33.00;78.00
8910;DHT22;4490;49.072;8.804;2023-08-21T09:37:49;33.10;77.30
8910;DHT22;4490;49.072;8.804;2023-08-21T09:40:19;33.20;77.00
8910;DHT22;4490;49.072;8.804;2023-08-21T09:42:45;33.30;76.90
8910;DHT22;4490;49.072;8.804;2023-08-21T09:45:10;33.30;76.40
8910;DHT22;4490;49.072;8.804;2023-08-21T09:47:37;33.50;76.90
8910;DHT22;4490;49.072;8.804;2023-08-21T09:50:05;33.60;76.10
8910;DHT22;4490;49.072;8.804;2023-08-21T09:52:31;33.70;75.10
8910;DHT22;4490;49.072;8.804;2023-08-21T09:54:57;33.90;75.90
8910;DHT22;4490;49.072;8.804;2023-08-21T09:57:23;34.10;75.60
8910;DHT22;4490;49.072;8.804;2023-08-21T09:59:53;34.20;74.60
8910;DHT22;4490;49.072;8.804;2023-08-21T10:02:20;34.40;72.70
8910;DHT22;4490;49.072;8.804;2023-08-21T10:04:47;34.50;73.10
8910;DHT22;4490;49.072;8.804;2023-08-21T10:07:15;34.60;73.00
8910;DHT22;4490;49.072;8.804;2023-08-21T10:09:42;34.80;72.00
8910;DHT22;4490;49.072;8.804;2023-08-21T10:12:13;35.00;71.40
8910;DHT22;4490;49.072;8.804;2023-08-21T10:14:40;35.20;70.40
8910;DHT22;4490;49.072;8.804;2023-08-21T10:17:06;35.40;70.00
8910;DHT22;4490;49.072;8.804;2023-08-21T10:19:34;35.60;69.50
8910;DHT22;4490;49.072;8.804;2023-08-21T10:22:00;35.70;68.20
8910;DHT22;4490;49.072;8.804;2023-08-21T10:24:35;35.70;67.40
8910;DHT22;4490;49.072;8.804;2023-08-21T10:27:01;35.90;68.40
8910;DHT22;4490;49.072;8.804;2023-08-21T10:29:27;36.10;68.00
8910;DHT22;4490;49.072;8.804;2023-08-21T10:32:01;36.30;66.70
8910;DHT22;4490;49.072;8.804;2023-08-21T10:34:36;36.50;66.50
8910;DHT22;4490;49.072;8.804;2023-08-21T10:37:06;36.60;66.80
8910;DHT22;4490;49.072;8.804;2023-08-21T10:39:33;36.70;67.20
8910;DHT22;4490;49.072;8.804;2023-08-21T10:44:37;36.70;64.30
8910;DHT22;4490;49.072;8.804;2023-08-21T10:47:14;36.70;65.00
8910;DHT22;4490;49.072;8.804;2023-08-21T10:49:40;36.80;63.40
8910;DHT22;4490;49.072;8.804;2023-08-21T10:52:08;36.80;64.40
8910;DHT22;4490;49.072;8.804;2023-08-21T10:54:45;36.80;65.10
8910;DHT22;4490;49.072;8.804;2023-08-21T10:57:11;36.80;64.60
8910;DHT22;4490;49.072;8.804;2023-08-21T10:59:37;36.90;64.60
8910;DHT22;4490;49.072;8.804;2023-08-21T11:02:03;36.90;64.20
8910;DHT22;4490;49.072;8.804;2023-08-21T11:04:28;36.90;64.20
8910;DHT22;4490;49.072;8.804;2023-08-21T11:06:54;36.90;64.30
8910;DHT22;4490;49.072;8.804;2023-08-21T11:09:21;37.00;64.60
8910;DHT22;4490;49.072;8.804;2023-08-21T11:11:47;37.10;63.30
8910;DHT22;4490;49.072;8.804;2023-08-21T11:14:13;37.30;63.50
8910;DHT22;4490;49.072;8.804;2023-08-21T11:16:39;37.40;62.60
8910;DHT22;4490;49.072;8.804;2023-08-21T11:19:04;37.40;61.70
8910;DHT22;4490;49.072;8.804;2023-08-21T11:21:33;37.40;61.80
8910;DHT22;4490;49.072;8.804;2023-08-21T11:23:58;37.40;62.40
8910;DHT22;4490;49.072;8.804;2023-08-21T11:26:25;37.50;62.40
8910;DHT22;4490;49.072;8.804;2023-08-21T11:28:50;37.50;62.20
8910;DHT22;4490;49.072;8.804;2023-08-21T11:31:16;37.70;61.80
8910;DHT22;4490;49.072;8.804;2023-08-21T11:33:49;37.80;61.50
8910;DHT22;4490;49.072;8.804;2023-08-21T11:36:15;38.00;61.00
8910;DHT22;4490;49.072;8.804;2023-08-21T11:38:41;38.10;59.80
8910;DHT22;4490;49.072;8.804;2023-08-21T11:41:06;38.20;59.30
8910;DHT22;4490;49.072;8.804;2023-08-21T11:43:37;38.30;59.50
8910;DHT22;4490;49.072;8.804;2023-08-21T11:46:04;38.40;58.50
8910;DHT22;4490;49.072;8.804;2023-08-21T11:48:30;38.50;58.70
8910;DHT22;4490;49.072;8.804;2023-08-21T11:50:57;38.50;57.50
8910;DHT22;4490;49.072;8.804;2023-08-21T11:53:36;38.70;57.60
8910;DHT22;4490;49.072;8.804;2023-08-21T11:56:03;38.70;58.70
8910;DHT22;4490;49.072;8.804;2023-08-21T11:58:38;38.60;57.80
8910;DHT22;4490;49.072;8.804;2023-08-21T12:01:04;38.60;57.50
8910;DHT22;4490;49.072;8.804;2023-08-21T12:03:30;38.70;57.80
8910;DHT22;4490;49.072;8.804;2023-08-21T12:05:56;38.80;57.50
8910;DHT22;4490;49.072;8.804;2023-08-21T12:08:22;38.80;57.10
8910;DHT22;4490;49.072;8.804;2023-08-21T12:10:51;38.70;57.20
8910;DHT22;4490;49.072;8.804;2023-08-21T12:13:18;38.70;57.00
8910;DHT22;4490;49.072;8.804;2023-08-21T12:15:43;38.50;57.10
8910;DHT22;4490;49.072;8.804;2023-08-21T12:18:09;38.40;57.00
8910;DHT22;4490;49.072;8.804;2023-08-21T12:20:35;38.30;56.40
8910;DHT22;4490;49.072;8.804;2023-08-21T12:23:00;38.30;57.20
8910;DHT22;4490;49.072;8.804;2023-08-21T12:25:26;38.40;56.80
8910;DHT22;4490;49.072;8.804;2023-08-21T12:27:51;38.40;57.30
8910;DHT22;4490;49.072;8.804;2023-08-21T12:30:17;38.50;56.60
8910;DHT22;4490;49.072;8.804;2023-08-21T12:32:43;38.70;55.90
8910;DHT22;4490;49.072;8.804;2023-08-21T12:35:08;38.80;56.20
8910;DHT22;4490;49.072;8.804;2023-08-21T12:37:37;38.90;56.70
8910;DHT22;4490;49.072;8.804;2023-08-21T12:40:03;39.00;56.30
8910;DHT22;4490;49.072;8.804;2023-08-21T12:42:29;38.90;55.70
8910;DHT22;4490;49.072;8.804;2023-08-21T12:44:54;38.90;55.90
8910;DHT22;4490;49.072;8.804;2023-08-21T12:47:20;38.80;56.00
8910;DHT22;4490;49.072;8.804;2023-08-21T12:49:45;39.00;56.50
8910;DHT22;4490;49.072;8.804;2023-08-21T12:52:11;39.10;55.20
8910;DHT22;4490;49.072;8.804;2023-08-21T12:54:38;39.10;55.20
8910;DHT22;4490;49.072;8.804;2023-08-21T12:57:04;39.00;55.40
8910;DHT22;4490;49.072;8.804;2023-08-21T12:59:30;39.00;55.60
8910;DHT22;4490;49.072;8.804;2023-08-21T13:01:58;38.90;56.10
8910;DHT22;4490;49.072;8.804;2023-08-21T13:04:23;38.90;55.40
8910;DHT22;4490;49.072;8.804;2023-08-21T13:06:49;39.00;55.50
8910;DHT22;4490;49.072;8.804;2023-08-21T13:09:16;39.10;55.00
8910;DHT22;4490;49.072;8.804;2023-08-21T13:11:42;39.30;54.80
8910;DHT22;4490;49.072;8.804;2023-08-21T13:14:07;39.40;54.50
8910;DHT22;4490;49.072;8.804;2023-08-21T13:16:33;39.50;54.70
8910;DHT22;4490;49.072;8.804;2023-08-21T13:18:59;39.60;54.70
8910;DHT22;4490;49.072;8.804;2023-08-21T13:21:24;39.60;54.20
8910;DHT22;4490;49.072;8.804;2023-08-21T13:23:50;39.60;53.50
8910;DHT22;4490;49.072;8.804;2023-08-21T13:26:15;39.70;53.60
8910;DHT22;4490;49.072;8.804;2023-08-21T13:28:41;39.60;53.90
8910;DHT22;4490;49.072;8.804;2023-08-21T13:31:06;39.50;54.30
8910;DHT22;4490;49.072;8.804;2023-08-21T13:33:44;39.40;54.30
8910;DHT22;4490;49.072;8.804;2023-08-21T13:36:10;39.40;53.60
8910;DHT22;4490;49.072;8.804;2023-08-21T13:38:35;39.20;53.70
8910;DHT22;4490;49.072;8.804;2023-08-21T13:41:01;39.00;54.00
8910;DHT22;4490;49.072;8.804;2023-08-21T13:43:27;38.90;54.40
8910;DHT22;4490;49.072;8.804;2023-08-21T13:45:52;38.80;54.40
8910;DHT22;4490;49.072;8.804;2023-08-21T13:48:18;38.70;54.40
8910;DHT22;4490;49.072;8.804;2023-08-21T13:50:44;38.50;54.80
8910;DHT22;4490;49.072;8.804;2023-08-21T13:53:09;38.40;55.10
8910;DHT22;4490;49.072;8.804;2023-08-21T13:55:35;38.50;55.80
8910;DHT22;4490;49.072;8.804;2023-08-21T13:58:00;38.50;55.70
8910;DHT22;4490;49.072;8.804;2023-08-21T14:00:26;38.60;54.80
8910;DHT22;4490;49.072;8.804;2023-08-21T14:02:52;38.70;54.00
8910;DHT22;4490;49.072;8.804;2023-08-21T14:05:17;38.80;53.90
8910;DHT22;4490;49.072;8.804;2023-08-21T14:07:43;38.90;53.90
8910;DHT22;4490;49.072;8.804;2023-08-21T14:10:09;38.90;54.00
8910;DHT22;4490;49.072;8.804;2023-08-21T14:12:34;39.00;54.40
8910;DHT22;4490;49.072;8.804;2023-08-21T14:15:00;39.00;53.80
8910;DHT22;4490;49.072;8.804;2023-08-21T14:17:27;39.00;53.10
8910;DHT22;4490;49.072;8.804;2023-08-21T14:19:52;38.90;53.50
8910;DHT22;4490;49.072;8.804;2023-08-21T14:22:18;38.80;53.50
8910;DHT22;4490;49.072;8.804;2023-08-21T14:24:44;38.80;53.70
8910;DHT22;4490;49.072;8.804;2023-08-21T14:27:10;38.70;53.40
8910;DHT22;4490;49.072;8.804;2023-08-21T14:29:35;38.70;53.60
8910;DHT22;4490;49.072;8.804;2023-08-21T14:32:01;38.60;53.50
8910;DHT22;4490;49.072;8.804;2023-08-21T14:34:27;38.60;53.70
8910;DHT22;4490;49.072;8.804;2023-08-21T14:36:53;38.50;53.30
8910;DHT22;4490;49.072;8.804;2023-08-21T14:39:21;38.50;52.80
8910;DHT22;4490;49.072;8.804;2023-08-21T14:41:47;38.50;52.70
8910;DHT22;4490;49.072;8.804;2023-08-21T14:44:12;38.40;53.00
8910;DHT22;4490;49.072;8.804;2023-08-21T14:46:40;38.30;52.40
8910;DHT22;4490;49.072;8.804;2023-08-21T14:49:05;38.30;53.20
8910;DHT22;4490;49.072;8.804;2023-08-21T14:51:31;38.20;53.20
8910;DHT22;4490;49.072;8.804;2023-08-21T14:53:56;38.10;52.90
8910;DHT22;4490;49.072;8.804;2023-08-21T14:56:22;37.90;52.60
8910;DHT22;4490;49.072;8.804;2023-08-21T14:58:48;37.70;53.20
8910;DHT22;4490;49.072;8.804;2023-08-21T15:01:14;37.60;54.10
8910;DHT22;4490;49.072;8.804;2023-08-21T15:03:40;37.40;54.80
8910;DHT22;4490;49.072;8.804;2023-08-21T15:06:06;37.20;55.40
8910;DHT22;4490;49.072;8.804;2023-08-21T15:08:32;37.00;55.40
8910;DHT22;4490;49.072;8.804;2023-08-21T15:10:58;36.90;55.60
8910;DHT22;4490;49.072;8.804;2023-08-21T15:13:23;36.80;55.90
8910;DHT22;4490;49.072;8.804;2023-08-21T15:15:49;36.80;55.80
8910;DHT22;4490;49.072;8.804;2023-08-21T15:18:15;36.60;55.90
8910;DHT22;4490;49.072;8.804;2023-08-21T15:20:40;36.50;56.80
8910;DHT22;4490;49.072;8.804;2023-08-21T15:23:06;36.40;56.50
8910;DHT22;4490;49.072;8.804;2023-08-21T15:25:31;36.40;56.50
8910;DHT22;4490;49.072;8.804;2023-08-21T15:27:57;36.40;57.50
8910;DHT22;4490;49.072;8.804;2023-08-21T15:30:22;36.30;56.90
8910;DHT22;4490;49.072;8.804;2023-08-21T15:32:48;36.30;57.20
8910;DHT22;4490;49.072;8.804;2023-08-21T15:35:14;36.30;57.20
8910;DHT22;4490;49.072;8.804;2023-08-21T15:37:40;36.20;57.20
8910;DHT22;4490;49.072;8.804;2023-08-21T15:40:07;36.20;58.00
8910;DHT22;4490;49.072;8.804;2023-08-21T15:42:33;36.20;57.40
8910;DHT22;4490;49.072;8.804;2023-08-21T15:44:58;36.10;57.40
8910;DHT22;4490;49.072;8.804;2023-08-21T15:47:24;36.00;57.60
8910;DHT22;4490;49.072;8.804;2023-08-21T15:49:50;35.90;57.80
8910;DHT22;4490;49.072;8.804;2023-08-21T15:52:15;35.80;57.80
8910;DHT22;4490;49.072;8.804;2023-08-21T15:54:41;35.70;57.60
8910;DHT22;4490;49.072;8.804;2023-08-21T15:57:06;35.60;57.60
8910;DHT22;4490;49.072;8.804;2023-08-21T15:59:32;35.50;57.60
8910;DHT22;4490;49.072;8.804;2023-08-21T16:01:58;35.40;57.50